createdAt,value
2023-05-19T00:00:29.267Z,78.43
2023-05-19T00:01:29.113Z,78.85
2023-05-19T00:02:29.198Z,78.85
2023-05-19T00:03:29.137Z,78.12
2023-05-19T00:04:29.065Z,78.53
2023-05-19T00:05:29.069Z,78.85
2023-05-19T00:06:29.053Z,78.53
2023-05-19T00:07:29.030Z,78.27
2023-05-19T00:08:29.018Z,78.57
2023-05-19T00:09:29.015Z,78.47
2023-05-19T00:10:29.109Z,78.67
2023-05-19T00:11:28.996Z,79.19
2023-05-19T00:12:28.970Z,79.19
2023-05-19T00:13:28.972Z,79.19
2023-05-19T00:14:28.953Z,78.98
2023-05-19T00:15:28.959Z,78.98
2023-05-19T00:16:29.322Z,78.67
2023-05-19T00:17:28.959Z,78.78
2023-05-19T00:18:28.910Z,78.27
2023-05-19T00:19:28.981Z,78.57
2023-05-19T00:20:28.914Z,79.19
2023-05-19T00:21:28.878Z,79.43
2023-05-19T00:22:28.856Z,79.43
2023-05-19T00:23:28.860Z,79.63
2023-05-19T00:24:28.845Z,79.33
2023-05-19T00:25:28.853Z,79.43
2023-05-19T00:26:28.823Z,79.63
2023-05-19T00:27:28.815Z,79.84
2023-05-19T00:28:28.796Z,80.46
2023-05-19T00:29:28.798Z,80.15
2023-05-19T00:30:28.796Z,80.15
2023-05-19T00:31:28.799Z,80.25
2023-05-19T00:32:28.805Z,80.87
2023-05-19T00:33:28.745Z,81.48
2023-05-19T00:34:28.742Z,81.48
2023-05-19T00:35:28.717Z,81.28
2023-05-19T00:36:28.716Z,80.66
2023-05-19T00:37:28.700Z,80.77
2023-05-19T00:38:28.690Z,80.46
2023-05-19T00:39:28.694Z,80.49
2023-05-19T00:40:28.665Z,80.35
2023-05-19T00:41:28.657Z,80.70
2023-05-19T00:42:28.647Z,80.60
2023-05-19T00:43:28.649Z,80.29
2023-05-19T00:44:28.637Z,80.19
2023-05-19T00:45:28.618Z,80.39
2023-05-19T00:46:28.635Z,80.29
2023-05-19T00:47:28.613Z,80.49
2023-05-19T00:48:28.586Z,80.49
2023-05-19T00:49:28.568Z,81.01
2023-05-19T00:50:28.560Z,80.70
2023-05-19T00:51:28.546Z,80.60
2023-05-19T00:52:28.536Z,80.70
2023-05-19T00:53:28.539Z,81.01
2023-05-19T00:54:28.509Z,81.11
2023-05-19T00:55:28.506Z,81.15
2023-05-19T00:56:28.487Z,81.15
2023-05-19T00:57:28.492Z,81.56
2023-05-19T00:58:28.488Z,81.67
2023-05-19T00:59:28.470Z,81.46
2023-05-19T01:00:28.475Z,81.35
2023-05-19T01:01:28.543Z,81.25
2023-05-19T01:02:28.498Z,81.67
2023-05-19T01:03:28.509Z,81.46
2023-05-19T01:04:28.398Z,81.46
2023-05-19T01:05:28.397Z,81.97
2023-05-19T01:06:28.374Z,81.76
2023-05-19T01:07:28.381Z,81.46
2023-05-19T01:08:28.364Z,81.56
2023-05-19T01:09:28.349Z,81.97
2023-05-19T01:10:28.343Z,82.07
2023-05-19T01:11:28.338Z,82.07
2023-05-19T01:12:28.327Z,81.97
2023-05-19T01:13:28.307Z,81.76
2023-05-19T01:14:28.296Z,81.35
2023-05-19T01:15:28.279Z,81.97
2023-05-19T01:16:28.311Z,82.18
2023-05-19T01:17:28.328Z,82.07
2023-05-19T01:18:28.250Z,82.18
2023-05-19T01:19:28.243Z,82.69
2023-05-19T01:20:28.226Z,82.48
2023-05-19T01:21:28.221Z,82.39
2023-05-19T01:22:28.209Z,82.28
2023-05-19T01:23:28.188Z,82.42
2023-05-19T01:24:28.189Z,82.53
2023-05-19T01:25:28.182Z,82.83
2023-05-19T01:26:28.173Z,82.93
2023-05-19T01:27:28.146Z,82.93
2023-05-19T01:28:28.144Z,82.93
2023-05-19T01:29:28.126Z,82.83
2023-05-19T01:30:28.126Z,82.79
2023-05-19T01:31:28.126Z,82.79
2023-05-19T01:32:28.115Z,82.90
2023-05-19T01:33:28.079Z,83.00
2023-05-19T01:34:28.088Z,82.69
2023-05-19T01:35:28.066Z,82.69
2023-05-19T01:36:28.050Z,82.59
2023-05-19T01:37:28.040Z,82.59
2023-05-19T01:38:28.030Z,83.00
2023-05-19T01:39:28.023Z,82.69
2023-05-19T01:40:28.016Z,82.59
2023-05-19T01:41:27.992Z,82.59
2023-05-19T01:42:27.991Z,82.73
2023-05-19T01:43:27.967Z,82.73
2023-05-19T01:44:27.976Z,83.45
2023-05-19T01:45:27.951Z,83.35
2023-05-19T01:46:28.092Z,83.25
2023-05-19T01:47:27.962Z,83.45
2023-05-19T01:48:27.925Z,83.86
2023-05-19T01:49:27.916Z,84.42
2023-05-19T01:50:27.901Z,84.83
2023-05-19T01:51:27.884Z,84.93
2023-05-19T01:52:27.880Z,85.03
2023-05-19T01:53:27.882Z,85.14
2023-05-19T01:54:27.866Z,85.55
2023-05-19T01:55:27.848Z,85.49
2023-05-19T01:56:27.827Z,85.69
2023-05-19T01:57:27.817Z,86.00
2023-05-19T01:58:27.825Z,86.00
2023-05-19T01:59:27.797Z,86.10
2023-05-19T02:00:27.796Z,86.35
2023-05-19T02:01:27.829Z,86.35
2023-05-19T02:02:27.802Z,86.24
2023-05-19T02:03:27.781Z,86.35
2023-05-19T02:04:27.782Z,86.66
2023-05-19T02:05:27.732Z,86.87
2023-05-19T02:06:27.731Z,86.87
2023-05-19T02:07:27.724Z,86.87
2023-05-19T02:08:27.713Z,86.76
2023-05-19T02:09:27.681Z,86.87
2023-05-19T02:10:27.693Z,86.66
2023-05-19T02:11:27.677Z,86.87
2023-05-19T02:12:27.663Z,86.87
2023-05-19T02:13:27.640Z,86.76
2023-05-19T02:14:27.633Z,86.66
2023-05-19T02:15:27.613Z,86.35
2023-05-19T02:16:27.730Z,86.24
2023-05-19T02:17:27.616Z,86.35
2023-05-19T02:18:27.589Z,86.55
2023-05-19T02:19:27.718Z,86.55
2023-05-19T02:20:27.566Z,86.87
2023-05-19T02:21:27.563Z,86.66
2023-05-19T02:22:27.549Z,86.66
2023-05-19T02:23:27.524Z,86.76
2023-05-19T02:24:27.527Z,87.07
2023-05-19T02:25:27.509Z,86.97
2023-05-19T02:26:27.502Z,86.87
2023-05-19T02:27:27.492Z,86.76
2023-05-19T02:28:27.485Z,86.87
2023-05-19T02:29:27.465Z,86.97
2023-05-19T02:30:27.451Z,86.97
2023-05-19T02:31:27.467Z,86.97
2023-05-19T02:32:27.465Z,86.97
2023-05-19T02:33:27.432Z,86.97
2023-05-19T02:34:27.414Z,87.27
2023-05-19T02:35:27.411Z,87.17
2023-05-19T02:36:27.406Z,87.07
2023-05-19T02:37:27.369Z,87.17
2023-05-19T02:38:27.381Z,87.27
2023-05-19T02:39:27.362Z,87.73
2023-05-19T02:40:27.373Z,87.52
2023-05-19T02:41:27.350Z,87.52
2023-05-19T02:42:27.324Z,87.52
2023-05-19T02:43:27.317Z,87.63
2023-05-19T02:44:27.299Z,87.73
2023-05-19T02:45:27.300Z,87.73
2023-05-19T02:46:27.323Z,87.83
2023-05-19T02:47:27.283Z,87.83
2023-05-19T02:48:27.251Z,87.73
2023-05-19T02:49:27.277Z,87.63
2023-05-19T02:50:27.247Z,87.93
2023-05-19T02:51:27.212Z,88.04
2023-05-19T02:52:27.213Z,87.93
2023-05-19T02:53:27.195Z,87.83
2023-05-19T02:54:27.228Z,87.93
2023-05-19T02:55:27.173Z,88.04
2023-05-19T02:56:27.166Z,88.04
2023-05-19T02:57:27.161Z,88.04
2023-05-19T02:58:27.140Z,88.04
2023-05-19T02:59:27.130Z,88.14
2023-05-19T03:00:27.132Z,88.35
2023-05-19T03:01:27.161Z,88.24
2023-05-19T03:02:27.195Z,88.49
2023-05-19T03:03:27.166Z,88.49
2023-05-19T03:04:27.083Z,88.80
2023-05-19T03:05:27.060Z,88.76
2023-05-19T03:06:27.048Z,88.65
2023-05-19T03:07:27.034Z,88.56
2023-05-19T03:08:27.041Z,88.65
2023-05-19T03:09:27.034Z,88.65
2023-05-19T03:10:27.013Z,88.76
2023-05-19T03:11:26.993Z,89.07
2023-05-19T03:12:26.984Z,89.11
2023-05-19T03:13:27.009Z,89.11
2023-05-19T03:14:26.961Z,89.11
2023-05-19T03:15:26.954Z,89.22
2023-05-19T03:16:26.968Z,89.11
2023-05-19T03:17:26.982Z,89.42
2023-05-19T03:18:26.986Z,89.42
2023-05-19T03:19:26.956Z,89.32
2023-05-19T03:20:26.900Z,89.32
2023-05-19T03:21:26.881Z,89.52
2023-05-19T03:22:26.887Z,89.62
2023-05-19T03:23:26.863Z,89.83
2023-05-19T03:24:26.856Z,89.94
2023-05-19T03:25:26.843Z,89.94
2023-05-19T03:26:26.841Z,89.73
2023-05-19T03:27:26.828Z,89.42
2023-05-19T03:28:26.809Z,89.52
2023-05-19T03:29:26.822Z,89.62
2023-05-19T03:30:26.786Z,89.62
2023-05-19T03:31:26.872Z,89.62
2023-05-19T03:32:26.856Z,89.52
2023-05-19T03:33:26.918Z,89.52
2023-05-19T03:34:26.758Z,89.87
2023-05-19T03:35:26.751Z,90.08
2023-05-19T03:36:26.749Z,90.28
2023-05-19T03:37:26.722Z,90.28
2023-05-19T03:38:26.707Z,90.39
2023-05-19T03:39:26.690Z,90.28
2023-05-19T03:40:26.681Z,90.19
2023-05-19T03:41:26.685Z,90.39
2023-05-19T03:42:26.661Z,90.39
2023-05-19T03:43:26.675Z,90.39
2023-05-19T03:44:26.674Z,90.59
2023-05-19T03:45:26.621Z,90.70
2023-05-19T03:46:26.847Z,90.49
2023-05-19T03:47:26.637Z,90.39
2023-05-19T03:48:26.598Z,90.49
2023-05-19T03:49:26.594Z,90.55
2023-05-19T03:50:26.587Z,90.45
2023-05-19T03:51:26.570Z,90.45
2023-05-19T03:52:26.552Z,90.25
2023-05-19T03:53:26.554Z,90.25
2023-05-19T03:54:26.525Z,90.14
2023-05-19T03:55:26.522Z,90.25
2023-05-19T03:56:26.536Z,90.25
2023-05-19T03:57:26.490Z,90.14
2023-05-19T03:58:26.483Z,90.14
2023-05-19T03:59:26.479Z,90.14
2023-05-19T04:00:26.491Z,90.25
2023-05-19T04:01:26.456Z,90.35
2023-05-19T04:02:26.588Z,90.35
2023-05-19T04:03:26.530Z,90.35
2023-05-19T04:04:26.452Z,90.25
2023-05-19T04:05:26.403Z,90.25
2023-05-19T04:06:26.399Z,90.25
2023-05-19T04:07:26.380Z,90.45
2023-05-19T04:08:26.402Z,90.55
2023-05-19T04:09:26.369Z,90.66
2023-05-19T04:10:26.349Z,90.66
2023-05-19T04:11:26.343Z,90.55
2023-05-19T04:12:26.366Z,90.76
2023-05-19T04:13:26.330Z,90.72
2023-05-19T04:14:26.312Z,90.72
2023-05-19T04:15:26.297Z,90.61
2023-05-19T04:16:26.474Z,90.61
2023-05-19T04:17:26.329Z,90.61
2023-05-19T04:18:28.809Z,90.51
2023-05-19T04:19:26.275Z,90.51
2023-05-19T04:20:26.246Z,90.41
2023-05-19T04:21:26.227Z,90.31
2023-05-19T04:22:26.215Z,90.31
2023-05-19T04:23:26.216Z,90.31
2023-05-19T04:24:26.202Z,90.31
2023-05-19T04:25:26.184Z,90.20
2023-05-19T04:26:26.174Z,90.26
2023-05-19T04:27:26.172Z,90.26
2023-05-19T04:28:26.175Z,90.26
2023-05-19T04:29:26.138Z,90.37
2023-05-19T04:30:26.144Z,90.37
2023-05-19T04:31:26.193Z,90.26
2023-05-19T04:32:26.212Z,90.06
2023-05-19T04:33:26.099Z,90.01
2023-05-19T04:34:26.114Z,89.91
2023-05-19T04:35:26.066Z,89.71
2023-05-19T04:36:26.065Z,89.50
2023-05-19T04:37:26.071Z,89.29
2023-05-19T04:38:26.048Z,89.29
2023-05-19T04:39:26.035Z,89.19
2023-05-19T04:40:26.044Z,89.19
2023-05-19T04:41:26.020Z,89.29
2023-05-19T04:42:26.011Z,89.25
2023-05-19T04:43:25.982Z,89.36
2023-05-19T04:44:25.976Z,89.36
2023-05-19T04:45:25.961Z,89.36
2023-05-19T04:46:25.993Z,89.36
2023-05-19T04:47:25.985Z,89.25
2023-05-19T04:48:25.929Z,88.95
2023-05-19T04:49:25.921Z,88.84
2023-05-19T04:50:25.916Z,88.84
2023-05-19T04:51:25.928Z,88.80
2023-05-19T04:52:25.895Z,89.01
2023-05-19T04:53:25.873Z,89.11
2023-05-19T04:54:25.873Z,89.22
2023-05-19T04:55:25.863Z,89.31
2023-05-19T04:56:25.856Z,89.22
2023-05-19T04:57:25.833Z,89.17
2023-05-19T04:58:25.832Z,89.17
2023-05-19T04:59:25.808Z,89.07
2023-05-19T05:00:25.817Z,88.66
2023-05-19T05:01:25.834Z,88.20
2023-05-19T05:02:25.857Z,88.10
2023-05-19T05:03:25.830Z,87.49
2023-05-19T05:04:25.777Z,87.28
2023-05-19T05:05:25.757Z,86.62
2023-05-19T05:06:25.735Z,85.28
2023-05-19T05:07:25.711Z,85.28
2023-05-19T05:08:25.701Z,84.67
2023-05-19T05:09:25.704Z,83.50
2023-05-19T05:10:25.695Z,83.29
2023-05-19T05:11:25.673Z,82.89
2023-05-19T05:12:25.673Z,82.54
2023-05-19T05:13:25.662Z,81.82
2023-05-19T05:14:25.668Z,81.71
2023-05-19T05:15:25.624Z,81.62
2023-05-19T05:16:25.659Z,81.00
2023-05-19T05:17:25.721Z,80.65
2023-05-19T05:18:25.593Z,81.37
2023-05-19T05:19:25.707Z,80.04
2023-05-19T05:20:25.576Z,80.00
2023-05-19T05:21:25.553Z,80.10
2023-05-19T05:22:25.553Z,80.21
2023-05-19T05:23:25.548Z,80.21
2023-05-19T05:24:25.537Z,79.69
2023-05-19T05:25:25.515Z,79.28
2023-05-19T05:26:25.505Z,79.24
2023-05-19T05:27:25.499Z,79.24
2023-05-19T05:28:25.496Z,78.83
2023-05-19T05:29:25.467Z,78.83
2023-05-19T05:30:25.490Z,78.42
2023-05-19T05:31:25.474Z,78.53
2023-05-19T05:32:25.506Z,78.70
2023-05-19T05:33:25.539Z,78.39
2023-05-19T05:34:25.432Z,78.59
2023-05-19T05:35:25.512Z,78.35
2023-05-19T05:36:25.412Z,77.23
2023-05-19T05:37:25.384Z,77.43
2023-05-19T05:38:25.399Z,77.64
2023-05-19T05:39:25.358Z,77.43
2023-05-19T05:40:25.367Z,77.50
2023-05-19T05:41:25.336Z,77.29
2023-05-19T05:43:25.334Z,77.76
2023-05-19T05:44:25.318Z,76.81
2023-05-19T05:45:25.291Z,75.52
2023-05-19T05:46:25.444Z,75.99
2023-05-19T05:47:25.324Z,75.89
2023-05-19T05:48:25.266Z,75.79
2023-05-19T05:49:25.250Z,76.20
2023-05-19T05:50:25.240Z,75.89
2023-05-19T05:51:25.225Z,75.79
2023-05-19T05:52:25.231Z,75.96
2023-05-19T05:53:25.201Z,76.57
2023-05-19T05:54:25.199Z,75.62
2023-05-19T05:55:25.189Z,74.69
2023-05-19T05:56:25.194Z,74.69
2023-05-19T05:57:25.172Z,74.69
2023-05-19T05:58:25.154Z,75.00
2023-05-19T05:59:25.143Z,73.74
2023-05-19T06:00:25.134Z,74.56
2023-05-19T06:01:25.135Z,74.32
2023-05-19T06:02:25.201Z,72.99
2023-05-19T06:03:25.248Z,72.24
2023-05-19T06:04:25.106Z,72.14
2023-05-19T06:05:25.116Z,72.34
2023-05-19T06:06:25.093Z,72.86
2023-05-19T06:07:25.054Z,72.11
2023-05-19T06:08:25.048Z,71.70
2023-05-19T06:09:25.052Z,71.91
2023-05-19T06:10:25.045Z,72.92
2023-05-19T06:11:25.021Z,72.48
2023-05-19T06:12:25.007Z,70.95
2023-05-19T06:13:24.992Z,71.06
2023-05-19T06:14:24.982Z,70.75
2023-05-19T06:15:24.989Z,71.53
2023-05-19T06:16:24.995Z,71.12
2023-05-19T06:17:24.971Z,70.61
2023-05-19T06:18:24.952Z,68.68
2023-05-19T06:19:25.035Z,70.07
2023-05-19T06:20:24.923Z,70.21
2023-05-19T06:21:24.903Z,70.04
2023-05-19T06:22:24.893Z,71.06
2023-05-19T06:23:24.877Z,71.43
2023-05-19T06:24:24.870Z,70.99
2023-05-19T06:25:24.881Z,70.48
2023-05-19T06:26:24.851Z,70.65
2023-05-19T06:27:24.838Z,70.86
2023-05-19T06:28:24.846Z,70.72
2023-05-19T06:29:24.842Z,69.70
2023-05-19T06:30:24.813Z,69.19
2023-05-19T06:31:24.872Z,69.26
2023-05-19T06:32:24.854Z,68.55
2023-05-19T06:33:27.397Z,69.02
2023-05-19T06:34:24.775Z,68.11
2023-05-19T06:35:24.756Z,67.40
2023-05-19T06:36:24.741Z,68.01
2023-05-19T06:37:24.722Z,67.80
2023-05-19T06:38:24.740Z,68.52
2023-05-19T06:39:24.734Z,67.60
2023-05-19T06:40:24.696Z,67.91
2023-05-19T06:41:24.681Z,67.27
2023-05-19T06:42:24.675Z,67.57
2023-05-19T06:43:24.663Z,67.33
2023-05-19T06:44:24.668Z,66.83
2023-05-19T06:45:24.637Z,66.02
2023-05-19T06:46:24.660Z,68.05
2023-05-19T06:47:24.634Z,66.49
2023-05-19T06:48:24.605Z,66.08
2023-05-19T06:49:24.617Z,66.49
2023-05-19T06:50:24.589Z,65.88
2023-05-19T06:51:24.577Z,66.05
2023-05-19T06:52:24.570Z,65.85
2023-05-19T06:53:24.547Z,65.31
2023-05-19T06:54:24.553Z,65.11
2023-05-19T06:55:24.537Z,64.70
2023-05-19T06:56:24.530Z,66.56
2023-05-19T06:57:24.506Z,65.04
2023-05-19T06:58:24.525Z,64.64
2023-05-19T06:59:24.557Z,64.53
2023-05-19T07:00:24.471Z,65.11
2023-05-19T07:01:24.479Z,64.91
2023-05-19T07:02:24.460Z,65.62
2023-05-19T07:03:24.555Z,65.01
2023-05-19T07:04:24.460Z,65.18
2023-05-19T07:05:24.429Z,64.85
2023-05-19T07:06:24.421Z,63.60
2023-05-19T07:07:24.389Z,63.81
2023-05-19T07:08:24.415Z,63.50
2023-05-19T07:09:24.387Z,62.86
2023-05-19T07:10:24.353Z,62.96
2023-05-19T07:11:24.355Z,62.49
2023-05-19T07:12:24.348Z,62.62
2023-05-19T07:13:25.920Z,63.60
2023-05-19T07:14:24.318Z,63.30
2023-05-19T07:15:24.305Z,63.76
2023-05-19T07:16:24.316Z,64.85
2023-05-19T07:17:24.956Z,64.64
2023-05-19T07:18:24.268Z,63.40
2023-05-19T07:19:24.383Z,63.07
2023-05-19T07:20:24.250Z,63.27
2023-05-19T07:21:24.244Z,62.02
2023-05-19T07:22:24.255Z,62.02
2023-05-19T07:23:24.219Z,60.61
2023-05-19T07:24:24.205Z,61.01
2023-05-19T07:25:24.196Z,60.84
2023-05-19T07:26:24.189Z,62.56
2023-05-19T07:27:24.202Z,61.75
2023-05-19T07:28:24.186Z,61.95
2023-05-19T07:29:24.151Z,62.50
2023-05-19T07:30:24.135Z,60.88
2023-05-19T07:31:24.170Z,59.80
2023-05-19T07:32:24.190Z,61.24
2023-05-19T07:33:24.107Z,61.65
2023-05-19T07:34:24.090Z,59.67
2023-05-19T07:35:24.084Z,59.54
2023-05-19T07:36:24.077Z,59.71
2023-05-19T07:37:24.062Z,58.40
2023-05-19T07:38:24.046Z,58.96
2023-05-19T07:39:24.340Z,59.34
2023-05-19T07:40:24.025Z,59.14
2023-05-19T07:41:24.032Z,60.02
2023-05-19T07:42:24.002Z,57.76
2023-05-19T07:43:24.006Z,57.87
2023-05-19T07:44:23.980Z,58.54
2023-05-19T07:45:23.987Z,57.81
2023-05-19T07:46:24.024Z,57.89
2023-05-19T07:47:23.952Z,57.15
2023-05-19T07:48:23.938Z,56.17
2023-05-19T07:49:23.930Z,55.21
2023-05-19T07:50:23.927Z,55.41
2023-05-19T07:51:23.905Z,55.49
2023-05-19T07:52:23.891Z,53.83
2023-05-19T07:53:23.895Z,51.16
2023-05-19T07:54:23.888Z,50.33
2023-05-19T07:55:23.882Z,51.09
2023-05-19T07:56:23.847Z,50.53
2023-05-19T07:57:23.839Z,50.16
2023-05-19T07:58:23.825Z,48.38
2023-05-19T07:59:23.817Z,48.74
2023-05-19T08:00:23.804Z,46.92
2023-05-19T08:01:23.802Z,46.77
2023-05-19T08:02:23.842Z,46.12
2023-05-19T08:03:24.046Z,46.98
2023-05-19T08:04:23.820Z,47.02
2023-05-19T08:05:23.752Z,45.01
2023-05-19T08:06:23.734Z,46.39
2023-05-19T08:07:23.728Z,44.87
2023-05-19T08:08:23.716Z,45.05
2023-05-19T08:09:23.722Z,45.33
2023-05-19T08:10:23.795Z,44.32
2023-05-19T08:11:23.682Z,46.04
2023-05-19T08:12:23.677Z,44.70
2023-05-19T08:13:23.661Z,45.04
2023-05-19T08:14:23.668Z,45.12
2023-05-19T08:15:23.646Z,45.04
2023-05-19T08:16:23.700Z,44.82
2023-05-19T08:17:23.634Z,45.42
2023-05-19T08:18:23.621Z,45.54
2023-05-19T08:19:23.785Z,45.64
2023-05-19T08:20:23.610Z,45.12
2023-05-19T08:21:23.594Z,44.47
2023-05-19T08:22:23.571Z,43.63
2023-05-19T08:23:23.570Z,41.88
2023-05-19T08:24:23.547Z,41.83
2023-05-19T08:25:23.566Z,42.68
2023-05-19T08:26:23.513Z,42.38
2023-05-19T08:27:23.521Z,43.85
2023-05-19T08:28:23.513Z,46.31
2023-05-19T08:29:23.488Z,49.57
2023-05-19T08:30:23.502Z,50.12
2023-05-19T08:31:23.503Z,50.40
2023-05-19T08:32:23.489Z,47.92
2023-05-19T08:33:23.469Z,45.90
2023-05-19T08:34:23.460Z,44.96
2023-05-19T08:35:23.428Z,43.18
2023-05-19T08:36:23.411Z,44.18
2023-05-19T08:37:23.392Z,41.85
2023-05-19T08:38:23.404Z,42.21
2023-05-19T08:39:23.373Z,41.25
2023-05-19T08:40:23.404Z,41.03
2023-05-19T08:41:23.372Z,41.93
2023-05-19T08:42:23.362Z,40.94
2023-05-19T08:43:23.345Z,41.75
2023-05-19T08:44:23.339Z,41.33
2023-05-19T08:45:23.328Z,40.23
2023-05-19T08:46:23.346Z,41.36
2023-05-19T08:47:23.300Z,40.78
2023-05-19T08:48:23.283Z,40.80
2023-05-19T08:49:25.407Z,42.25
2023-05-19T08:50:23.296Z,42.91
2023-05-19T08:51:23.244Z,41.77
2023-05-19T08:52:23.266Z,41.63
2023-05-19T08:53:33.236Z,39.74
2023-05-19T09:01:39.852Z,39.76
2023-05-19T09:01:45.161Z,45.23
2023-05-19T09:02:55.074Z,46.88
2023-05-19T09:03:45.187Z,47.26
2023-05-19T09:04:45.164Z,47.77
2023-05-19T09:05:45.159Z,47.44
2023-05-19T09:06:45.231Z,46.73
2023-05-19T09:07:45.091Z,46.26
2023-05-19T09:08:45.104Z,47.28
2023-05-19T09:09:45.078Z,47.00
2023-05-19T09:10:45.085Z,47.63
2023-05-19T09:11:45.047Z,47.94
2023-05-19T09:12:45.045Z,48.11
2023-05-19T09:13:45.041Z,47.51
2023-05-19T09:14:45.015Z,47.91
2023-05-19T09:15:45.017Z,48.52
2023-05-19T09:16:45.076Z,48.44
2023-05-19T09:17:45.014Z,48.76
2023-05-19T09:18:45.016Z,48.08
2023-05-19T09:19:44.973Z,48.50
2023-05-19T09:20:44.963Z,48.91
2023-05-19T09:21:44.941Z,49.01
2023-05-19T09:22:44.928Z,48.89
2023-05-19T09:23:44.916Z,47.58
2023-05-19T09:24:44.953Z,48.06
2023-05-19T09:25:44.904Z,47.86
2023-05-19T09:26:44.889Z,48.03
2023-05-19T09:27:44.868Z,47.33
2023-05-19T09:28:44.866Z,47.71
2023-05-19T09:29:44.857Z,47.81
2023-05-19T09:30:44.843Z,48.69
2023-05-19T09:31:44.854Z,48.14
2023-05-19T09:32:44.855Z,48.74
2023-05-19T09:33:46.016Z,48.34
2023-05-19T09:34:44.809Z,48.36
2023-05-19T09:35:44.784Z,48.79
2023-05-19T09:36:44.774Z,49.29
2023-05-19T09:37:44.780Z,49.31
2023-05-19T09:38:44.788Z,49.31
2023-05-19T09:39:44.744Z,49.39
2023-05-19T09:40:44.728Z,48.56
2023-05-19T09:41:44.717Z,48.74
2023-05-19T09:42:44.721Z,48.03
2023-05-19T09:43:44.707Z,47.23
2023-05-19T09:44:44.686Z,47.51
2023-05-19T09:45:44.717Z,47.13
2023-05-19T09:46:44.767Z,48.41
2023-05-19T09:47:44.725Z,47.61
2023-05-19T09:48:44.671Z,48.29
2023-05-19T09:49:44.629Z,47.28
2023-05-19T09:50:44.619Z,47.59
2023-05-19T09:51:44.603Z,48.29
2023-05-19T09:52:44.633Z,47.97
2023-05-19T09:53:44.591Z,47.16
2023-05-19T09:54:44.578Z,47.79
2023-05-19T09:55:44.567Z,47.49
2023-05-19T09:56:44.557Z,46.86
2023-05-19T09:57:44.554Z,46.76
2023-05-19T09:58:44.531Z,47.14
2023-05-19T09:59:44.520Z,46.36
2023-05-19T10:00:44.535Z,46.18
2023-05-19T10:01:44.556Z,47.08
2023-05-19T10:02:44.525Z,45.67
2023-05-19T10:03:44.471Z,47.06
2023-05-19T10:04:44.491Z,46.66
2023-05-19T10:05:44.456Z,46.06
2023-05-19T10:06:44.457Z,46.26
2023-05-19T10:07:44.442Z,46.38
2023-05-19T10:08:44.428Z,46.68
2023-05-19T10:09:44.410Z,46.08
2023-05-19T10:10:44.419Z,46.48
2023-05-19T10:11:44.407Z,46.60
2023-05-19T10:12:44.373Z,47.51
2023-05-19T10:13:44.372Z,47.53
2023-05-19T10:14:44.353Z,48.32
2023-05-19T10:15:57.193Z,47.63
2023-05-19T10:16:44.378Z,48.14
2023-05-19T10:17:44.334Z,47.75
2023-05-19T10:18:44.311Z,47.94
2023-05-19T10:19:44.319Z,48.06
2023-05-19T10:20:44.296Z,47.94
2023-05-19T10:21:44.286Z,47.74
2023-05-19T10:22:44.266Z,48.74
2023-05-19T10:23:44.260Z,48.03
2023-05-19T10:24:44.246Z,46.53
2023-05-19T10:25:44.264Z,46.95
2023-05-19T10:26:44.219Z,47.47
2023-05-19T10:27:44.239Z,49.16
2023-05-19T10:28:44.219Z,49.85
2023-05-19T10:29:44.209Z,48.41
2023-05-19T10:30:44.190Z,47.31
2023-05-19T10:31:44.187Z,46.93
2023-05-19T10:32:44.207Z,49.16
2023-05-19T10:33:44.148Z,48.64
2023-05-19T10:34:44.161Z,48.06
2023-05-19T10:35:45.380Z,48.76
2023-05-19T10:36:44.117Z,49.04
2023-05-19T10:37:44.103Z,47.71
2023-05-19T10:38:44.108Z,48.32
2023-05-19T10:39:44.096Z,47.99
2023-05-19T10:40:44.070Z,48.39
2023-05-19T10:41:45.074Z,47.66
2023-05-19T10:42:44.045Z,48.17
2023-05-19T10:43:44.038Z,47.66
2023-05-19T10:44:44.037Z,47.06
2023-05-19T10:45:44.020Z,47.28
2023-05-19T10:46:44.041Z,48.09
2023-05-19T10:47:44.016Z,48.72
2023-05-19T10:48:43.994Z,47.91
2023-05-19T10:49:43.989Z,47.74
2023-05-19T10:50:43.959Z,48.46
2023-05-19T10:51:43.950Z,49.27
2023-05-19T10:52:43.933Z,49.65
2023-05-19T10:53:43.939Z,49.15
2023-05-19T10:54:43.924Z,49.04
2023-05-19T10:55:43.910Z,49.24
2023-05-19T10:56:43.911Z,48.26
2023-05-19T10:57:43.888Z,48.84
2023-05-19T10:58:43.926Z,48.54
2023-05-19T10:59:43.869Z,49.22
2023-05-19T11:00:43.851Z,49.93
2023-05-19T11:01:43.891Z,49.07
2023-05-19T11:02:43.995Z,48.97
2023-05-19T11:03:43.863Z,48.47
2023-05-19T11:04:43.805Z,49.18
2023-05-19T11:05:43.819Z,47.89
2023-05-19T11:06:43.790Z,49.50
2023-05-19T11:07:43.824Z,49.19
2023-05-19T11:08:43.762Z,49.40
2023-05-19T11:09:43.756Z,48.52
2023-05-19T11:10:43.738Z,49.42
2023-05-19T11:11:43.735Z,49.82
2023-05-19T11:12:43.742Z,49.22
2023-05-19T11:13:43.716Z,49.70
2023-05-19T11:14:43.713Z,48.77
2023-05-19T11:15:43.688Z,47.26
2023-05-19T11:16:43.726Z,47.49
2023-05-19T11:17:43.698Z,47.49
2023-05-19T11:18:43.716Z,47.99
2023-05-19T11:19:43.645Z,48.49
2023-05-19T11:20:43.655Z,48.47
2023-05-19T11:21:43.640Z,47.14
2023-05-19T11:22:43.616Z,47.04
2023-05-19T11:23:43.676Z,47.36
2023-05-19T11:24:43.608Z,48.37
2023-05-19T11:25:43.634Z,49.45
2023-05-19T11:26:43.576Z,48.44
2023-05-19T11:27:43.552Z,47.64
2023-05-19T11:28:43.540Z,48.59
2023-05-19T11:29:43.537Z,48.99
2023-05-19T11:30:43.538Z,49.42
2023-05-19T11:31:43.545Z,50.33
2023-05-19T11:32:43.538Z,49.90
2023-05-19T11:33:43.493Z,49.50
2023-05-19T11:34:43.477Z,49.37
2023-05-19T11:35:43.481Z,49.07
2023-05-19T11:36:43.469Z,48.67
2023-05-19T11:37:43.449Z,49.07
2023-05-19T11:38:43.436Z,49.65
2023-05-19T11:39:43.426Z,50.13
2023-05-19T11:40:43.417Z,49.22
2023-05-19T11:41:43.410Z,48.83
2023-05-19T11:42:43.393Z,48.85
2023-05-19T11:43:43.380Z,49.76
2023-05-19T11:44:43.365Z,49.68
2023-05-19T11:45:43.376Z,50.08
2023-05-19T11:46:43.411Z,49.57
2023-05-19T11:48:00.260Z,49.88
2023-05-19T11:48:43.417Z,49.80
2023-05-19T11:49:43.355Z,49.50
2023-05-19T11:50:43.312Z,50.40
2023-05-19T11:51:43.288Z,49.90
2023-05-19T11:52:43.279Z,50.00
2023-05-19T11:53:43.276Z,50.71
2023-05-19T11:54:43.265Z,50.08
2023-05-19T11:55:43.251Z,49.57
2023-05-19T11:56:43.234Z,49.55
2023-05-19T11:57:47.049Z,50.48
2023-05-19T11:58:43.217Z,49.48
2023-05-19T11:59:43.219Z,49.77
2023-05-19T12:00:43.190Z,49.57
2023-05-19T12:01:43.182Z,49.40
2023-05-19T12:02:43.253Z,50.91
2023-05-19T12:03:43.248Z,50.40
2023-05-19T12:04:43.272Z,49.88
2023-05-19T12:05:43.893Z,47.99
2023-05-19T12:06:43.144Z,48.52
2023-05-19T12:07:43.129Z,48.82
2023-05-19T12:08:43.145Z,48.59
2023-05-19T12:09:43.105Z,49.19
2023-05-19T12:10:43.074Z,49.48
2023-05-19T12:11:43.076Z,48.44
2023-05-19T12:12:43.055Z,48.95
2023-05-19T12:13:43.063Z,49.53
2023-05-19T12:14:43.034Z,48.90
2023-05-19T12:15:43.037Z,48.43
2023-05-19T12:16:43.068Z,48.55
2023-05-19T12:17:43.085Z,49.48
2023-05-19T12:18:43.054Z,49.68
2023-05-19T12:19:42.989Z,49.68
2023-05-19T12:20:42.974Z,50.51
2023-05-19T12:21:42.969Z,50.40
2023-05-19T12:22:42.976Z,49.70
2023-05-19T12:23:42.942Z,49.02
2023-05-19T12:24:42.924Z,49.60
2023-05-19T12:25:42.929Z,49.88
2023-05-19T12:26:42.904Z,49.57
2023-05-19T12:27:42.922Z,50.15
2023-05-19T12:28:42.881Z,49.65
2023-05-19T12:29:42.881Z,49.25
2023-05-19T12:30:42.867Z,49.85
2023-05-19T12:31:42.884Z,49.45
2023-05-19T12:32:42.880Z,49.85
2023-05-19T12:33:42.829Z,49.88
2023-05-19T12:34:42.821Z,49.37
2023-05-19T12:35:42.813Z,49.98
2023-05-19T12:36:42.809Z,49.68
2023-05-19T12:37:42.792Z,49.50
2023-05-19T12:38:42.773Z,50.60
2023-05-19T12:39:42.765Z,49.60
2023-05-19T12:40:42.756Z,50.51
2023-05-19T12:41:42.753Z,50.08
2023-05-19T12:42:42.732Z,48.57
2023-05-19T12:43:42.724Z,49.48
2023-05-19T12:44:42.721Z,49.37
2023-05-19T12:45:42.836Z,49.55
2023-05-19T12:46:42.700Z,49.83
2023-05-19T12:47:42.722Z,49.21
2023-05-19T12:48:42.660Z,48.40
2023-05-19T12:49:42.657Z,48.10
2023-05-19T12:50:42.679Z,47.92
2023-05-19T12:51:42.704Z,48.22
2023-05-19T12:52:42.619Z,48.14
2023-05-19T12:53:42.612Z,48.85
2023-05-19T12:54:42.735Z,47.64
2023-05-19T12:55:42.601Z,47.94
2023-05-19T12:56:42.595Z,48.87
2023-05-19T12:57:42.585Z,48.87
2023-05-19T12:58:42.570Z,48.77
2023-05-19T12:59:42.540Z,48.77